createdAt,value
2022-08-30T00:01:13.612Z,62.82
2022-08-30T00:03:47.389Z,62.82
2022-08-30T00:06:16.993Z,63.17
2022-08-30T00:08:44.119Z,63.98
2022-08-30T00:11:15.660Z,63.21
2022-08-30T00:13:44.746Z,64.06
2022-08-30T00:16:12.906Z,63.64
2022-08-30T00:18:40.349Z,63.46
2022-08-30T00:21:08.700Z,64.09
2022-08-30T00:23:35.582Z,64.23
2022-08-30T00:26:03.088Z,63.64
2022-08-30T00:28:30.405Z,64.46
2022-08-30T00:30:57.232Z,64.00
2022-08-30T00:33:24.176Z,64.82
2022-08-30T00:35:50.745Z,64.54
2022-08-30T00:38:17.370Z,64.31
2022-08-30T00:40:46.233Z,64.56
2022-08-30T00:43:19.506Z,65.07
2022-08-30T00:45:47.322Z,64.46
2022-08-30T00:48:13.915Z,64.67
2022-08-30T00:50:48.567Z,64.85
2022-08-30T00:53:20.470Z,64.56
2022-08-30T00:55:49.070Z,64.98
2022-08-30T00:58:22.589Z,64.96
2022-08-30T01:00:51.944Z,64.92
2022-08-30T01:03:18.691Z,65.71
2022-08-30T01:05:46.486Z,65.49
2022-08-30T01:08:13.481Z,64.96
2022-08-30T01:10:40.115Z,64.97
2022-08-30T01:13:09.667Z,65.00
2022-08-30T01:15:36.572Z,65.63
2022-08-30T01:18:04.138Z,64.95
2022-08-30T01:20:47.120Z,65.56
2022-08-30T01:23:16.638Z,64.97
2022-08-30T01:25:47.630Z,65.09
2022-08-30T01:28:18.869Z,65.24
2022-08-30T01:30:45.928Z,65.58
2022-08-30T01:33:13.177Z,65.39
2022-08-30T01:35:56.465Z,66.11
2022-08-30T01:38:27.311Z,65.49
2022-08-30T01:41:17.320Z,66.02
2022-08-30T01:43:44.492Z,65.59
2022-08-30T01:46:12.134Z,66.30
2022-08-30T01:48:40.654Z,66.21
2022-08-30T01:51:11.667Z,65.87
2022-08-30T01:53:40.155Z,66.62
2022-08-30T01:56:08.035Z,66.50
2022-08-30T01:58:36.525Z,66.16
2022-08-30T02:01:06.552Z,66.83
2022-08-30T02:03:35.462Z,66.12
2022-08-30T02:06:07.354Z,66.55
2022-08-30T02:08:34.952Z,67.04
2022-08-30T02:11:02.464Z,66.04
2022-08-30T02:13:30.572Z,66.35
2022-08-30T02:15:57.951Z,67.30
2022-08-30T02:18:25.728Z,67.52
2022-08-30T02:20:52.884Z,67.21
2022-08-30T02:23:19.721Z,67.14
2022-08-30T02:25:46.524Z,67.33
2022-08-30T02:28:15.636Z,66.51
2022-08-30T02:30:45.571Z,67.25
2022-08-30T02:33:12.371Z,67.61
2022-08-30T02:35:39.400Z,67.77
2022-08-30T02:38:06.291Z,66.64
2022-08-30T02:40:34.073Z,68.31
2022-08-30T02:43:01.251Z,68.53
2022-08-30T02:45:28.182Z,68.32
2022-08-30T02:47:56.769Z,68.21
2022-08-30T02:50:24.195Z,67.38
2022-08-30T02:52:51.118Z,68.90
2022-08-30T02:55:18.406Z,68.01
2022-08-30T02:57:45.763Z,68.06
2022-08-30T03:00:16.945Z,68.93
2022-08-30T03:02:43.796Z,68.48
2022-08-30T03:05:13.009Z,69.06
2022-08-30T03:07:41.569Z,68.31
2022-08-30T03:10:09.595Z,68.40
2022-08-30T03:12:36.520Z,68.25
2022-08-30T03:15:06.344Z,68.81
2022-08-30T03:17:33.112Z,67.89
2022-08-30T03:20:00.936Z,68.81
2022-08-30T03:22:28.204Z,68.95
2022-08-30T03:24:59.454Z,68.43
2022-08-30T03:27:26.902Z,68.55
2022-08-30T03:29:54.222Z,68.91
2022-08-30T03:32:21.163Z,68.76
2022-08-30T03:34:48.054Z,68.03
2022-08-30T03:37:14.742Z,69.01
2022-08-30T03:39:41.436Z,68.72
2022-08-30T03:42:08.084Z,68.35
2022-08-30T03:44:35.780Z,68.88
2022-08-30T03:47:03.804Z,68.71
2022-08-30T03:49:30.734Z,69.35
2022-08-30T03:51:57.636Z,69.03
2022-08-30T03:54:24.843Z,68.72
2022-08-30T03:56:51.924Z,69.74
2022-08-30T03:59:18.690Z,68.89
2022-08-30T04:01:46.014Z,69.53
2022-08-30T04:04:14.523Z,69.73
2022-08-30T04:06:42.877Z,70.05
2022-08-30T04:09:10.173Z,70.18
2022-08-30T04:11:36.845Z,69.60
2022-08-30T04:14:03.915Z,70.25
2022-08-30T04:16:30.632Z,70.35
2022-08-30T04:18:57.326Z,70.38
2022-08-30T04:21:23.937Z,70.31
2022-08-30T04:23:50.722Z,70.01
2022-08-30T04:26:17.360Z,70.85
2022-08-30T04:28:44.047Z,70.19
2022-08-30T04:31:15.254Z,70.08
2022-08-30T04:33:43.144Z,70.34
2022-08-30T04:36:11.521Z,70.45
2022-08-30T04:38:39.488Z,70.90
2022-08-30T04:41:18.248Z,71.80
2022-08-30T04:43:47.411Z,70.93
2022-08-30T04:46:14.514Z,71.12
2022-08-30T04:48:41.197Z,71.20
2022-08-30T04:51:10.229Z,71.51
2022-08-30T04:53:37.164Z,71.02
2022-08-30T04:56:16.796Z,71.55
2022-08-30T04:58:45.317Z,72.11
2022-08-30T05:01:18.787Z,71.35
2022-08-30T05:03:47.806Z,72.50
2022-08-30T05:06:15.427Z,71.83
2022-08-30T05:08:46.226Z,72.21
2022-08-30T05:11:14.861Z,72.03
2022-08-30T05:13:41.474Z,71.96
2022-08-30T05:16:08.373Z,71.94
2022-08-30T05:18:36.924Z,72.26
2022-08-30T05:21:08.972Z,72.96
2022-08-30T05:23:37.003Z,72.40
2022-08-30T05:26:09.897Z,72.52
2022-08-30T05:28:36.949Z,72.06
2022-08-30T05:31:13.849Z,72.59
2022-08-30T05:33:41.236Z,72.80
2022-08-30T05:36:08.879Z,72.69
2022-08-30T05:38:35.524Z,73.10
2022-08-30T05:41:06.398Z,73.50
2022-08-30T05:43:35.255Z,72.74
2022-08-30T05:46:03.851Z,72.99
2022-08-30T05:48:30.569Z,73.07
2022-08-30T05:51:11.569Z,74.42
2022-08-30T05:53:39.716Z,74.28
2022-08-30T05:56:09.107Z,73.76
2022-08-30T05:58:36.329Z,74.55
2022-08-30T06:01:03.363Z,74.22
2022-08-30T06:03:30.017Z,74.48
2022-08-30T06:05:56.665Z,73.40
2022-08-30T06:08:23.429Z,73.70
2022-08-30T06:10:50.357Z,74.67
2022-08-30T06:13:17.023Z,74.09
2022-08-30T06:15:45.299Z,73.38
2022-08-30T06:18:13.367Z,74.56
2022-08-30T06:20:45.027Z,74.47
2022-08-30T06:23:17.945Z,73.96
2022-08-30T06:25:44.931Z,74.21
2022-08-30T06:28:12.525Z,73.99
2022-08-30T06:30:41.049Z,73.71
2022-08-30T06:33:07.743Z,73.73
2022-08-30T06:35:38.181Z,73.99
2022-08-30T06:38:13.590Z,73.50
2022-08-30T06:40:40.273Z,73.51
2022-08-30T06:43:06.967Z,73.42
2022-08-30T06:45:34.763Z,73.18
2022-08-30T06:48:01.784Z,73.07
2022-08-30T06:50:28.712Z,73.33
2022-08-30T06:52:55.616Z,72.53
2022-08-30T06:55:23.754Z,73.26
2022-08-30T06:57:50.290Z,72.51
2022-08-30T07:00:17.680Z,72.78
2022-08-30T07:02:44.383Z,72.45
2022-08-30T07:05:15.329Z,72.33
2022-08-30T07:07:43.758Z,72.24
2022-08-30T07:10:10.825Z,72.38
2022-08-30T07:12:37.511Z,71.63
2022-08-30T07:15:05.730Z,72.03
2022-08-30T07:17:59.940Z,71.24
2022-08-30T07:20:27.093Z,71.18
2022-08-30T07:22:53.735Z,71.29
2022-08-30T07:25:20.453Z,70.43
2022-08-30T07:27:47.202Z,70.53
2022-08-30T07:30:14.135Z,70.46
2022-08-30T07:32:41.128Z,70.17
2022-08-30T07:35:08.158Z,70.15
2022-08-30T07:37:35.031Z,70.18
2022-08-30T07:40:02.775Z,70.20
2022-08-30T07:42:29.561Z,69.77
2022-08-30T07:44:56.998Z,69.86
2022-08-30T07:47:23.901Z,69.66
2022-08-30T07:49:50.561Z,69.84
2022-08-30T07:52:17.157Z,69.55
2022-08-30T07:54:43.851Z,69.42
2022-08-30T07:57:12.098Z,68.78
2022-08-30T07:59:42.760Z,67.97
2022-08-30T08:02:09.466Z,68.09
2022-08-30T08:04:36.131Z,68.30
2022-08-30T08:07:02.817Z,68.49
2022-08-30T08:09:29.504Z,67.72
2022-08-30T08:11:56.256Z,67.42
2022-08-30T08:14:23.668Z,67.42
2022-08-30T08:16:50.453Z,67.14
2022-08-30T08:19:17.701Z,66.15
2022-08-30T08:21:44.230Z,66.17
2022-08-30T08:24:10.956Z,66.06
2022-08-30T08:26:39.102Z,65.54
2022-08-30T08:29:10.045Z,64.65
2022-08-30T08:31:37.284Z,64.77
2022-08-30T08:34:07.764Z,64.74
2022-08-30T08:36:35.820Z,64.93
2022-08-30T08:39:05.177Z,65.18
2022-08-30T08:41:37.918Z,64.29
2022-08-30T08:44:14.362Z,63.58
2022-08-30T08:46:59.807Z,63.04
2022-08-30T08:49:26.455Z,63.45
2022-08-30T08:52:13.612Z,63.37
2022-08-30T08:54:51.410Z,63.06
2022-08-30T08:57:20.354Z,63.16
2022-08-30T08:59:54.210Z,61.99
2022-08-30T09:02:28.544Z,61.68
2022-08-30T09:05:00.335Z,61.41
2022-08-30T09:07:32.291Z,60.26
2022-08-30T09:10:00.838Z,60.68
2022-08-30T09:12:28.060Z,60.80
2022-08-30T09:15:07.191Z,60.61
2022-08-30T09:17:51.168Z,60.81
2022-08-30T09:20:35.496Z,60.94
2022-08-30T09:23:32.430Z,59.98
2022-08-30T09:26:02.049Z,60.14
2022-08-30T09:28:45.473Z,60.44
2022-08-30T09:31:25.468Z,59.83
2022-08-30T09:34:01.577Z,59.09
2022-08-30T09:36:32.833Z,59.75
2022-08-30T09:39:15.388Z,58.93
2022-08-30T09:41:44.890Z,58.95
2022-08-30T09:44:17.685Z,57.81
2022-08-30T09:46:56.856Z,58.26
2022-08-30T09:49:38.138Z,57.90
2022-08-30T09:52:07.270Z,58.13
2022-08-30T09:55:01.612Z,57.88
2022-08-30T09:58:05.525Z,58.08
2022-08-30T10:00:40.434Z,57.11
2022-08-30T10:03:36.289Z,57.54
2022-08-30T10:06:19.856Z,56.67
2022-08-30T10:09:12.338Z,56.74
2022-08-30T10:12:13.244Z,55.07
2022-08-30T10:14:51.844Z,55.43
2022-08-30T10:17:39.163Z,55.15
2022-08-30T10:20:24.872Z,55.33
2022-08-30T10:23:07.060Z,54.16
2022-08-30T10:25:40.204Z,54.54
2022-08-30T10:28:17.201Z,54.30
2022-08-30T10:30:56.756Z,54.60
2022-08-30T10:33:31.812Z,54.95
2022-08-30T10:36:02.606Z,54.36
2022-08-30T10:38:35.814Z,52.33
2022-08-30T10:41:43.123Z,52.70
2022-08-30T10:44:22.891Z,51.89
2022-08-30T10:47:10.413Z,52.39
2022-08-30T10:49:43.870Z,51.84
2022-08-30T10:52:23.516Z,51.11
2022-08-30T10:55:08.613Z,48.90
2022-08-30T10:57:37.172Z,49.34
2022-08-30T11:00:10.554Z,48.71
2022-08-30T11:03:11.610Z,47.48
2022-08-30T11:05:57.167Z,46.97
2022-08-30T11:08:28.131Z,46.04
2022-08-30T11:11:21.411Z,45.22
2022-08-30T11:13:51.662Z,45.55
2022-08-30T11:16:33.350Z,45.59
2022-08-30T11:19:00.162Z,46.46
2022-08-30T11:21:39.169Z,44.50
2022-08-30T11:24:10.777Z,44.31
2022-08-30T11:26:48.479Z,43.54
2022-08-30T11:29:30.868Z,41.56
2022-08-30T11:32:23.834Z,41.56
2022-08-30T11:34:56.214Z,41.55
2022-08-30T11:37:44.370Z,42.28
2022-08-30T11:40:19.958Z,40.44
2022-08-30T11:42:53.528Z,39.29
2022-08-30T11:45:25.507Z,39.31
2022-08-30T11:48:05.729Z,38.66
2022-08-30T11:50:48.468Z,39.50
2022-08-30T11:53:15.224Z,39.46
2022-08-30T11:56:10.113Z,39.60
2022-08-30T11:58:59.667Z,37.94
2022-08-30T12:01:50.165Z,39.04
2022-08-30T12:04:28.480Z,37.75
2022-08-30T12:07:04.291Z,38.68
2022-08-30T12:09:30.749Z,38.40
2022-08-30T12:12:09.581Z,38.70
2022-08-30T12:14:40.804Z,37.83
2022-08-30T12:17:32.182Z,38.49
2022-08-30T12:20:00.775Z,37.92
2022-08-30T12:22:30.502Z,38.07
2022-08-30T12:24:57.522Z,37.15
2022-08-30T12:27:33.434Z,36.76
2022-08-30T12:30:04.704Z,36.96
2022-08-30T12:32:32.388Z,36.84
2022-08-30T12:35:02.957Z,36.91
2022-08-30T12:37:36.370Z,37.19
2022-08-30T12:40:23.818Z,36.36
2022-08-30T12:42:55.430Z,36.45
2022-08-30T12:45:37.551Z,36.21
2022-08-30T12:48:14.054Z,36.24
2022-08-30T12:50:53.568Z,37.19
2022-08-30T12:53:31.538Z,37.13
2022-08-30T12:56:05.077Z,36.92
2022-08-30T12:58:50.853Z,36.48
2022-08-30T13:01:33.580Z,37.36
2022-08-30T13:04:18.613Z,38.25
2022-08-30T13:07:02.270Z,37.26
2022-08-30T13:09:41.050Z,37.78
2022-08-30T13:12:21.250Z,37.09
2022-08-30T13:14:49.875Z,37.76
2022-08-30T13:17:18.880Z,37.80
2022-08-30T13:20:05.647Z,36.72
2022-08-30T13:22:41.542Z,36.56
2022-08-30T13:25:11.138Z,37.17
2022-08-30T13:27:39.885Z,36.45
2022-08-30T13:30:14.524Z,37.58
2022-08-30T13:32:41.764Z,37.77
2022-08-30T13:35:09.389Z,38.22
2022-08-30T13:37:49.465Z,38.33
2022-08-30T13:40:20.054Z,37.06
2022-08-30T13:42:47.437Z,37.23
2022-08-30T13:48:03.251Z,38.01
2022-08-30T13:50:31.114Z,37.20
2022-08-30T13:52:57.955Z,36.21
2022-08-30T13:55:24.622Z,36.99
2022-08-30T13:57:55.141Z,35.96
2022-08-30T14:00:23.495Z,35.07
2022-08-30T14:02:54.549Z,36.31
2022-08-30T14:05:48.336Z,36.29
2022-08-30T14:11:07.244Z,36.34
2022-08-30T14:13:33.914Z,36.45
2022-08-30T14:18:51.802Z,38.03
2022-08-30T14:21:21.279Z,38.33
2022-08-30T14:23:51.222Z,38.87
2022-08-30T14:26:21.483Z,38.43
2022-08-30T14:28:51.653Z,38.56
2022-08-30T14:31:19.110Z,37.93
2022-08-30T14:33:46.618Z,37.79
2022-08-30T14:36:15.465Z,38.46
2022-08-30T14:38:43.184Z,37.65
2022-08-30T14:41:10.919Z,36.87
2022-08-30T14:43:40.563Z,37.20
2022-08-30T14:46:08.531Z,36.76
2022-08-30T14:48:36.647Z,37.15
2022-08-30T14:51:03.665Z,37.79
2022-08-30T14:53:30.146Z,38.11
2022-08-30T14:55:56.923Z,37.22
2022-08-30T14:58:23.508Z,36.58
2022-08-30T15:00:52.563Z,35.86
2022-08-30T15:03:19.389Z,36.80
2022-08-30T15:05:53.052Z,35.59
2022-08-30T15:08:19.786Z,36.51
2022-08-30T15:10:47.484Z,36.10
2022-08-30T15:13:14.175Z,35.85
2022-08-30T15:15:42.748Z,35.71
2022-08-30T15:18:10.163Z,35.96
2022-08-30T15:20:37.786Z,35.74
2022-08-30T15:23:04.995Z,35.25
2022-08-30T15:25:31.678Z,36.25
2022-08-30T15:27:58.279Z,36.38
2022-08-30T15:30:25.184Z,36.98
2022-08-30T15:32:51.975Z,37.56
2022-08-30T15:35:18.762Z,38.32
2022-08-30T15:37:45.389Z,38.01
2022-08-30T15:40:12.581Z,38.81
2022-08-30T15:42:39.887Z,38.58
2022-08-30T15:45:09.456Z,39.23
2022-08-30T15:47:36.012Z,39.48
2022-08-30T15:50:06.539Z,39.20
2022-08-30T15:52:33.560Z,38.59
2022-08-30T15:55:00.115Z,39.16
2022-08-30T15:57:26.935Z,39.21
2022-08-30T15:59:54.859Z,39.93
2022-08-30T16:02:22.304Z,41.35
2022-08-30T16:04:54.316Z,41.31
2022-08-30T16:07:20.854Z,41.04
2022-08-30T16:09:47.577Z,41.26
2022-08-30T16:12:22.307Z,40.91
2022-08-30T16:14:50.818Z,41.13
2022-08-30T16:17:17.318Z,40.30
2022-08-30T16:19:45.080Z,40.16
2022-08-30T16:22:11.630Z,39.76
2022-08-30T16:24:39.472Z,40.02
2022-08-30T16:27:08.697Z,40.56
2022-08-30T16:29:35.370Z,40.75
2022-08-30T16:32:02.010Z,40.69
2022-08-30T16:34:28.668Z,41.15
2022-08-30T16:36:55.290Z,41.15
2022-08-30T16:39:22.383Z,41.20
2022-08-30T16:41:49.059Z,40.92
2022-08-30T16:44:17.718Z,41.28
2022-08-30T16:46:52.746Z,42.02
2022-08-30T16:49:20.231Z,41.94
2022-08-30T16:51:49.219Z,42.04
2022-08-30T16:54:17.405Z,42.90
2022-08-30T16:56:45.690Z,43.47
2022-08-30T16:59:13.247Z,42.92
2022-08-30T17:01:42.595Z,42.58
2022-08-30T17:04:10.179Z,41.83
2022-08-30T17:06:37.191Z,42.16
2022-08-30T17:09:05.958Z,41.59
2022-08-30T17:11:33.486Z,41.69
2022-08-30T17:14:00.358Z,41.57
2022-08-30T17:16:29.912Z,42.17
2022-08-30T17:18:59.803Z,42.28
2022-08-30T17:21:30.631Z,42.52
2022-08-30T17:24:02.093Z,42.36
2022-08-30T17:26:34.617Z,42.73
2022-08-30T17:29:02.218Z,42.33
2022-08-30T17:31:31.067Z,43.55
2022-08-30T17:34:04.160Z,42.89
2022-08-30T17:36:36.416Z,44.01
2022-08-30T17:39:11.052Z,43.39
2022-08-30T17:41:43.308Z,43.30
2022-08-30T17:44:16.798Z,43.15
2022-08-30T17:46:43.504Z,43.30
2022-08-30T17:49:10.577Z,43.61
2022-08-30T17:51:40.899Z,43.50
2022-08-30T17:54:09.380Z,43.54
2022-08-30T17:56:36.053Z,43.73
2022-08-30T17:59:05.460Z,43.97
2022-08-30T18:01:32.262Z,44.25
2022-08-30T18:04:02.111Z,44.83
2022-08-30T18:06:33.299Z,45.02
2022-08-30T18:09:01.413Z,45.27
2022-08-30T18:11:28.031Z,44.79
2022-08-30T18:13:54.714Z,45.25
2022-08-30T18:16:26.275Z,45.10
2022-08-30T18:18:55.876Z,45.50
2022-08-30T18:21:25.469Z,45.71
2022-08-30T18:23:55.462Z,46.34
2022-08-30T18:26:24.207Z,46.66
2022-08-30T18:29:08.978Z,47.33
2022-08-30T18:31:35.525Z,47.89
2022-08-30T18:34:02.444Z,48.27
2022-08-30T18:36:29.541Z,48.93
2022-08-30T18:38:56.365Z,49.40
2022-08-30T18:41:25.100Z,49.85
2022-08-30T18:44:05.782Z,48.99
2022-08-30T18:46:45.299Z,48.73
2022-08-30T18:49:23.310Z,48.52
2022-08-30T18:51:50.378Z,49.08
2022-08-30T18:54:17.381Z,48.64
2022-08-30T18:56:45.895Z,48.41
2022-08-30T18:59:12.638Z,48.86
2022-08-30T19:01:39.487Z,49.39
2022-08-30T19:04:07.678Z,49.66
2022-08-30T19:06:34.759Z,49.47
2022-08-30T19:09:04.462Z,49.52
2022-08-30T19:11:36.418Z,49.38
2022-08-30T19:14:05.416Z,49.83
2022-08-30T19:16:34.403Z,50.24
2022-08-30T19:19:02.929Z,50.70
2022-08-30T19:21:30.074Z,51.41
2022-08-30T19:23:56.761Z,51.48
2022-08-30T19:26:24.616Z,52.25
2022-08-30T19:28:54.223Z,52.38
2022-08-30T19:31:20.718Z,52.55
2022-08-30T19:33:47.611Z,52.83
2022-08-30T19:36:14.123Z,52.94
2022-08-30T19:38:44.420Z,51.86
2022-08-30T19:41:12.686Z,50.81
2022-08-30T19:43:39.831Z,50.39
2022-08-30T19:46:06.890Z,50.11
2022-08-30T19:48:37.866Z,49.94
2022-08-30T19:51:09.958Z,49.74
2022-08-30T19:53:36.743Z,49.50
2022-08-30T19:56:03.735Z,49.31
2022-08-30T19:58:30.321Z,49.78
2022-08-30T20:01:10.681Z,49.27
2022-08-30T20:03:39.877Z,49.03
2022-08-30T20:06:07.363Z,49.10
2022-08-30T20:08:34.281Z,48.87
2022-08-30T20:11:00.880Z,49.19
2022-08-30T20:13:28.281Z,49.28
2022-08-30T20:15:59.061Z,49.43
2022-08-30T20:18:26.262Z,49.42
2022-08-30T20:20:53.368Z,49.51
2022-08-30T20:23:23.760Z,49.13
2022-08-30T20:25:53.244Z,49.48
2022-08-30T20:28:21.102Z,49.60
2022-08-30T20:30:48.945Z,49.68
2022-08-30T20:33:16.146Z,49.62
2022-08-30T20:35:48.750Z,49.70
2022-08-30T20:38:20.705Z,49.64
2022-08-30T20:40:53.883Z,49.82
2022-08-30T20:43:22.718Z,49.38
2022-08-30T20:45:49.653Z,49.75
2022-08-30T20:48:17.600Z,49.86
2022-08-30T20:50:44.379Z,49.83
2022-08-30T20:53:12.302Z,49.87
2022-08-30T20:55:44.756Z,49.77
2022-08-30T20:58:12.056Z,50.62
2022-08-30T21:00:38.946Z,50.68
2022-08-30T21:03:13.338Z,50.53
2022-08-30T21:05:53.892Z,50.88
2022-08-30T21:08:20.490Z,51.46
2022-08-30T21:10:47.914Z,51.42
2022-08-30T21:13:14.529Z,52.00
2022-08-30T21:15:45.712Z,51.88
2022-08-30T21:18:14.568Z,52.90
2022-08-30T21:20:41.488Z,52.92
2022-08-30T21:23:08.045Z,53.50
2022-08-30T21:25:38.501Z,53.50
2022-08-30T21:28:05.152Z,54.15
2022-08-30T21:30:31.778Z,53.80
2022-08-30T21:33:00.353Z,54.33
2022-08-30T21:35:57.503Z,54.54
2022-08-30T21:38:24.609Z,54.47
2022-08-30T21:40:51.285Z,54.89
2022-08-30T21:43:18.094Z,55.15
2022-08-30T21:45:45.794Z,55.69
2022-08-30T21:48:14.280Z,55.35
2022-08-30T21:50:42.772Z,55.47
2022-08-30T21:53:10.084Z,56.04
2022-08-30T21:55:36.777Z,56.01
2022-08-30T21:58:03.554Z,56.65
2022-08-30T22:00:31.706Z,56.51
2022-08-30T22:02:58.418Z,56.17
2022-08-30T22:05:25.320Z,56.57
2022-08-30T22:07:52.105Z,57.07
2022-08-30T22:10:21.208Z,56.81
2022-08-30T22:12:48.056Z,57.73
2022-08-30T22:15:14.955Z,57.30
2022-08-30T22:17:43.314Z,57.77
2022-08-30T22:20:10.518Z,57.41
2022-08-30T22:22:37.941Z,57.25
2022-08-30T22:25:04.804Z,57.59
2022-08-30T22:27:31.485Z,57.61
2022-08-30T22:29:58.117Z,57.74
2022-08-30T22:32:24.732Z,58.08
2022-08-30T22:34:51.520Z,58.17
2022-08-30T22:37:18.230Z,58.20
2022-08-30T22:39:44.954Z,57.86
2022-08-30T22:42:11.536Z,57.64
2022-08-30T22:44:38.250Z,58.21
2022-08-30T22:47:04.878Z,58.60
2022-08-30T22:49:31.465Z,58.13
2022-08-30T22:51:58.063Z,58.13
2022-08-30T22:54:24.791Z,58.54
2022-08-30T22:56:51.466Z,59.00
2022-08-30T22:59:18.102Z,59.10
2022-08-30T23:01:44.808Z,59.15
2022-08-30T23:04:12.843Z,58.72
2022-08-30T23:06:39.682Z,59.47
2022-08-30T23:09:07.190Z,59.30
2022-08-30T23:11:34.542Z,59.16
2022-08-30T23:14:02.408Z,59.34
2022-08-30T23:16:29.111Z,59.60
2022-08-30T23:18:55.881Z,59.64
2022-08-30T23:21:26.157Z,59.53
2022-08-30T23:24:13.265Z,59.12
2022-08-30T23:26:59.774Z,59.70
2022-08-30T23:29:45.464Z,59.26
2022-08-30T23:32:31.200Z,59.69
2022-08-30T23:35:16.402Z,59.92
2022-08-30T23:38:01.698Z,60.63
2022-08-30T23:40:47.095Z,60.59
2022-08-30T23:43:32.471Z,60.47
2022-08-30T23:46:18.891Z,60.62
2022-08-30T23:49:05.789Z,60.99
2022-08-30T23:51:51.260Z,61.41
2022-08-30T23:54:36.686Z,61.12
2022-08-30T23:57:21.745Z,61.45
